createdAt,value
2022-08-01T00:01:45.861Z,67.73
2022-08-01T00:04:14.232Z,67.60
2022-08-01T00:06:42.510Z,67.54
2022-08-01T00:09:10.683Z,67.68
2022-08-01T00:11:59.690Z,67.85
2022-08-01T00:14:32.599Z,67.88
2022-08-01T00:17:06.722Z,67.97
2022-08-01T00:19:35.765Z,68.19
2022-08-01T00:22:03.785Z,68.26
2022-08-01T00:24:32.263Z,68.00
2022-08-01T00:27:00.360Z,67.95
2022-08-01T00:30:12.078Z,67.90
2022-08-01T00:32:16.793Z,67.59
2022-08-01T00:34:45.363Z,67.71
2022-08-01T00:37:15.982Z,67.73
2022-08-01T00:39:45.052Z,67.64
2022-08-01T00:42:13.706Z,67.58
2022-08-01T00:44:41.908Z,67.51
2022-08-01T00:47:10.203Z,67.41
2022-08-01T00:49:38.594Z,67.32
2022-08-01T00:52:08.040Z,67.27
2022-08-01T00:54:36.780Z,67.40
2022-08-01T00:57:05.612Z,67.21
2022-08-01T00:59:39.788Z,67.39
2022-08-01T01:02:14.726Z,67.38
2022-08-01T01:04:44.268Z,67.32
2022-08-01T01:07:30.742Z,67.27
2022-08-01T01:10:14.982Z,67.40
2022-08-01T01:12:56.187Z,67.38
2022-08-01T01:15:28.717Z,67.22
2022-08-01T01:18:08.556Z,67.18
2022-08-01T01:20:47.342Z,67.17
2022-08-01T01:23:30.613Z,67.04
2022-08-01T01:26:42.220Z,67.10
2022-08-01T01:29:58.676Z,67.16
2022-08-01T01:32:35.170Z,67.26
2022-08-01T01:35:09.297Z,67.25
2022-08-01T01:37:41.518Z,67.31
2022-08-01T01:40:12.102Z,67.31
2022-08-01T01:42:43.435Z,67.41
2022-08-01T01:45:13.273Z,67.43
2022-08-01T01:47:44.092Z,67.40
2022-08-01T01:50:13.442Z,67.22
2022-08-01T01:52:45.328Z,67.28
2022-08-01T01:55:15.413Z,67.50
2022-08-01T01:57:45.744Z,67.69
2022-08-01T02:00:15.631Z,67.90
2022-08-01T02:02:45.557Z,68.27
2022-08-01T02:05:14.650Z,68.39
2022-08-01T02:07:43.868Z,68.49
2022-08-01T02:10:13.299Z,68.62
2022-08-01T02:12:46.612Z,68.74
2022-08-01T02:15:15.568Z,68.69
2022-08-01T02:17:48.339Z,68.63
2022-08-01T02:20:17.509Z,68.60
2022-08-01T02:22:52.364Z,68.40
2022-08-01T02:26:10.217Z,68.27
2022-08-01T02:28:35.822Z,68.22
2022-08-01T02:31:12.758Z,68.12
2022-08-01T02:33:46.506Z,68.41
2022-08-01T02:36:30.413Z,68.39
2022-08-01T02:39:04.936Z,68.55
2022-08-01T02:41:36.903Z,68.46
2022-08-01T02:44:07.967Z,68.36
2022-08-01T02:46:43.492Z,68.33
2022-08-01T02:49:14.358Z,68.46
2022-08-01T02:51:44.862Z,68.42
2022-08-01T02:54:13.246Z,68.53
2022-08-01T02:56:43.212Z,68.61
2022-08-01T02:59:20.441Z,68.66
2022-08-01T03:01:52.870Z,68.59
2022-08-01T03:04:24.554Z,68.38
2022-08-01T03:06:55.463Z,68.03
2022-08-01T03:09:24.953Z,68.12
2022-08-01T03:11:55.048Z,68.18
2022-08-01T03:14:26.125Z,68.15
2022-08-01T03:16:57.173Z,68.48
2022-08-01T03:19:27.872Z,68.53
2022-08-01T03:21:59.765Z,68.77
2022-08-01T03:24:29.445Z,68.93
2022-08-01T03:26:59.224Z,69.20
2022-08-01T03:29:30.870Z,69.18
2022-08-01T03:32:01.404Z,69.29
2022-08-01T03:34:30.905Z,69.38
2022-08-01T03:37:27.472Z,69.55
2022-08-01T03:40:01.731Z,69.61
2022-08-01T03:42:34.934Z,69.56
2022-08-01T03:45:08.377Z,69.58
2022-08-01T03:47:45.154Z,69.49
2022-08-01T03:50:15.280Z,69.63
2022-08-01T03:52:45.068Z,69.43
2022-08-01T03:55:18.187Z,69.55
2022-08-01T03:57:48.439Z,69.46
2022-08-01T04:00:19.449Z,69.81
2022-08-01T04:02:49.871Z,69.58
2022-08-01T04:05:18.519Z,69.30
2022-08-01T04:07:57.445Z,69.26
2022-08-01T04:10:26.490Z,69.43
2022-08-01T04:12:54.959Z,69.16
2022-08-01T04:15:22.960Z,68.90
2022-08-01T04:17:51.005Z,68.92
2022-08-01T04:20:19.386Z,68.85
2022-08-01T04:22:48.028Z,68.79
2022-08-01T04:25:21.823Z,68.87
2022-08-01T04:27:54.076Z,68.93
2022-08-01T04:30:28.226Z,68.91
2022-08-01T04:33:00.264Z,68.50
2022-08-01T04:36:02.162Z,68.39
2022-08-01T04:38:24.268Z,68.32
2022-08-01T04:40:53.795Z,68.20
2022-08-01T04:43:22.927Z,68.31
2022-08-01T04:45:52.495Z,68.25
2022-08-01T04:48:22.708Z,68.28
2022-08-01T04:50:52.608Z,68.35
2022-08-01T04:53:23.155Z,68.26
2022-08-01T04:55:51.225Z,68.29
2022-08-01T04:58:19.417Z,68.27
2022-08-01T05:00:48.264Z,68.32
2022-08-01T05:03:16.832Z,68.00
2022-08-01T05:05:44.913Z,67.82
2022-08-01T05:08:13.245Z,67.85
2022-08-01T05:10:41.280Z,67.54
2022-08-01T05:13:10.116Z,67.21
2022-08-01T05:15:38.618Z,67.11
2022-08-01T05:18:08.557Z,66.86
2022-08-01T05:20:38.203Z,66.71
2022-08-01T05:23:06.534Z,66.38
2022-08-01T05:25:57.696Z,66.10
2022-08-01T05:28:26.359Z,65.91
2022-08-01T05:30:56.242Z,65.96
2022-08-01T05:33:24.247Z,66.10
2022-08-01T05:35:52.300Z,66.16
2022-08-01T05:38:20.522Z,66.13
2022-08-01T05:40:48.974Z,66.07
2022-08-01T05:43:17.851Z,65.72
2022-08-01T05:45:47.589Z,65.80
2022-08-01T05:48:16.007Z,66.04
2022-08-01T05:50:44.569Z,65.92
2022-08-01T05:53:12.804Z,65.94
2022-08-01T05:55:41.144Z,66.04
2022-08-01T05:58:12.399Z,65.81
2022-08-01T06:00:41.198Z,65.45
2022-08-01T06:03:09.213Z,65.33
2022-08-01T06:05:37.346Z,65.22
2022-08-01T06:08:05.352Z,65.12
2022-08-01T06:10:33.700Z,65.13
2022-08-01T06:13:04.313Z,65.14
2022-08-01T06:15:33.502Z,65.14
2022-08-01T06:18:02.165Z,65.49
2022-08-01T06:20:30.440Z,65.51
2022-08-01T06:22:59.857Z,65.42
2022-08-01T06:25:31.104Z,65.39
2022-08-01T06:27:59.122Z,65.26
2022-08-01T06:30:28.279Z,65.04
2022-08-01T06:32:59.747Z,64.94
2022-08-01T06:35:28.226Z,64.77
2022-08-01T06:37:57.615Z,64.92
2022-08-01T06:40:25.675Z,64.57
2022-08-01T06:42:53.948Z,64.49
2022-08-01T06:45:23.445Z,64.29
2022-08-01T06:47:51.446Z,64.00
2022-08-01T06:50:20.024Z,64.16
2022-08-01T06:52:48.065Z,63.91
2022-08-01T06:55:16.185Z,63.68
2022-08-01T06:57:49.606Z,63.51
2022-08-01T07:00:21.846Z,63.65
2022-08-01T07:02:55.110Z,63.58
2022-08-01T07:05:24.649Z,63.56
2022-08-01T07:07:53.181Z,63.40
2022-08-01T07:10:21.608Z,62.76
2022-08-01T07:12:49.756Z,62.20
2022-08-01T07:15:18.018Z,62.08
2022-08-01T07:17:46.483Z,61.56
2022-08-01T07:20:16.412Z,61.14
2022-08-01T07:22:47.446Z,60.91
2022-08-01T07:25:16.761Z,60.90
2022-08-01T07:27:45.705Z,60.87
2022-08-01T07:30:14.623Z,61.22
2022-08-01T07:32:43.101Z,60.93
2022-08-01T07:35:11.589Z,60.42
2022-08-01T07:37:48.652Z,60.62
2022-08-01T07:40:19.332Z,60.56
2022-08-01T07:42:48.624Z,60.77
2022-08-01T07:45:17.069Z,61.04
2022-08-01T07:47:45.428Z,61.23
2022-08-01T07:50:14.083Z,60.85
2022-08-01T07:52:43.657Z,60.69
2022-08-01T07:55:16.429Z,60.10
2022-08-01T07:57:45.521Z,60.01
2022-08-01T08:00:14.471Z,59.79
2022-08-01T08:02:43.252Z,59.59
2022-08-01T08:05:12.867Z,59.22
2022-08-01T08:07:41.778Z,58.89
2022-08-01T08:10:10.436Z,58.51
2022-08-01T08:12:39.204Z,58.14
2022-08-01T08:15:07.730Z,57.92
2022-08-01T08:17:36.782Z,57.19
2022-08-01T08:20:09.385Z,56.75
2022-08-01T08:22:38.260Z,56.60
2022-08-01T08:25:07.626Z,56.13
2022-08-01T08:27:37.810Z,55.88
2022-08-01T08:30:08.850Z,55.94
2022-08-01T08:32:37.654Z,56.24
2022-08-01T08:35:06.977Z,55.59
2022-08-01T08:37:39.228Z,55.10
2022-08-01T08:40:16.846Z,54.68
2022-08-01T08:42:47.525Z,53.86
2022-08-01T08:45:15.847Z,53.56
2022-08-01T08:47:47.616Z,53.70
2022-08-01T08:50:16.059Z,53.19
2022-08-01T08:52:46.670Z,53.57
2022-08-01T08:55:17.370Z,53.67
2022-08-01T08:57:48.601Z,52.66
2022-08-01T09:00:17.276Z,52.86
2022-08-01T09:02:50.273Z,53.04
2022-08-01T09:05:20.248Z,52.95
2022-08-01T09:07:49.157Z,53.64
2022-08-01T09:10:17.133Z,53.59
2022-08-01T09:13:03.854Z,53.60
2022-08-01T09:15:49.653Z,53.92
2022-08-01T09:18:32.874Z,54.26
2022-08-01T09:21:07.005Z,54.29
2022-08-01T09:23:54.061Z,54.29
2022-08-01T09:26:35.359Z,54.50
2022-08-01T09:29:05.635Z,54.29
2022-08-01T09:31:47.255Z,53.41
2022-08-01T09:34:24.962Z,53.13
2022-08-01T09:36:56.695Z,52.82
2022-08-01T09:39:28.724Z,52.68
2022-08-01T09:41:58.737Z,52.27
2022-08-01T09:44:54.865Z,52.13
2022-08-01T09:47:38.908Z,51.15
2022-08-01T09:50:11.027Z,50.70
2022-08-01T09:52:41.066Z,50.03
2022-08-01T09:55:10.551Z,48.68
2022-08-01T09:57:39.028Z,48.44
2022-08-01T10:00:35.619Z,48.78
2022-08-01T10:03:25.524Z,48.30
2022-08-01T10:05:58.695Z,47.18
2022-08-01T10:08:29.155Z,47.08
2022-08-01T10:11:10.036Z,46.89
2022-08-01T10:13:41.172Z,45.54
2022-08-01T10:16:10.763Z,45.39
2022-08-01T10:18:42.837Z,45.24
2022-08-01T10:21:12.822Z,45.34
2022-08-01T10:23:42.557Z,45.07
2022-08-01T10:26:13.401Z,45.53
2022-08-01T10:28:42.224Z,45.40
2022-08-01T10:31:15.112Z,44.37
2022-08-01T10:33:51.513Z,44.20
2022-08-01T10:36:22.934Z,43.87
2022-08-01T10:38:57.210Z,43.36
2022-08-01T10:41:27.594Z,42.95
2022-08-01T10:43:56.708Z,43.57
2022-08-01T10:46:26.038Z,43.24
2022-08-01T10:49:05.774Z,42.99
2022-08-01T10:51:52.585Z,41.85
2022-08-01T10:54:26.813Z,42.78
2022-08-01T10:57:00.481Z,42.75
2022-08-01T10:59:49.969Z,42.69
2022-08-01T11:02:32.072Z,42.72
2022-08-01T11:05:08.368Z,42.96
2022-08-01T11:07:45.804Z,42.91
2022-08-01T11:10:28.417Z,42.66
2022-08-01T11:12:56.801Z,42.64
2022-08-01T11:15:30.271Z,42.84
2022-08-01T11:18:02.133Z,42.78
2022-08-01T11:20:41.565Z,43.32
2022-08-01T11:23:13.888Z,42.97
2022-08-01T11:26:04.724Z,42.59
2022-08-01T11:28:40.600Z,42.36
2022-08-01T11:31:17.437Z,42.80
2022-08-01T11:33:47.033Z,42.44
2022-08-01T11:36:17.128Z,41.80
2022-08-01T11:38:49.413Z,41.53
2022-08-01T11:41:37.213Z,41.89
2022-08-01T11:44:18.417Z,41.67
2022-08-01T11:46:56.897Z,41.73
2022-08-01T11:49:38.956Z,41.88
2022-08-01T11:52:10.990Z,41.26
2022-08-01T11:54:47.150Z,41.06
2022-08-01T11:57:23.576Z,41.35
2022-08-01T12:00:02.249Z,40.42
2022-08-01T12:02:40.743Z,39.77
2022-08-01T12:05:12.088Z,40.05
2022-08-01T12:07:42.465Z,40.61
2022-08-01T12:10:16.480Z,39.79
2022-08-01T12:12:45.155Z,39.42
2022-08-01T12:15:14.539Z,39.30
2022-08-01T12:17:58.240Z,38.77
2022-08-01T12:20:34.207Z,39.14
2022-08-01T12:23:09.518Z,38.78
2022-08-01T12:25:41.090Z,38.34
2022-08-01T12:28:10.276Z,38.22
2022-08-01T12:30:39.042Z,36.87
2022-08-01T12:33:09.157Z,35.34
2022-08-01T12:35:39.411Z,35.49
2022-08-01T12:38:15.392Z,35.67
2022-08-01T12:40:46.611Z,35.57
2022-08-01T12:43:26.987Z,35.71
2022-08-01T12:46:01.899Z,35.85
2022-08-01T12:48:32.413Z,35.89
2022-08-01T12:51:03.455Z,35.96
2022-08-01T12:53:40.358Z,35.90
2022-08-01T12:56:14.035Z,35.65
2022-08-01T12:58:42.313Z,36.02
2022-08-01T13:01:13.115Z,35.94
2022-08-01T13:03:42.129Z,36.23
2022-08-01T13:06:16.570Z,36.61
2022-08-01T13:08:46.336Z,36.55
2022-08-01T13:11:17.639Z,36.90
2022-08-01T13:13:48.506Z,36.45
2022-08-01T13:16:34.357Z,36.31
2022-08-01T13:19:07.210Z,36.12
2022-08-01T13:21:54.469Z,36.18
2022-08-01T13:24:28.717Z,36.34
2022-08-01T13:27:05.509Z,36.14
2022-08-01T13:29:39.203Z,35.39
2022-08-01T13:32:28.659Z,34.99
2022-08-01T13:35:05.169Z,35.61
2022-08-01T13:37:33.538Z,35.19
2022-08-01T13:40:01.772Z,34.57
2022-08-01T13:42:30.677Z,34.95
2022-08-01T13:44:59.646Z,35.08
2022-08-01T13:47:31.365Z,34.71
2022-08-01T13:50:03.734Z,34.97
2022-08-01T13:52:32.999Z,35.41
2022-08-01T13:55:02.131Z,35.73
2022-08-01T13:57:36.595Z,35.63
2022-08-01T14:00:10.131Z,35.33
2022-08-01T14:02:41.310Z,35.91
2022-08-01T14:05:09.460Z,36.13
2022-08-01T14:07:38.356Z,36.62
2022-08-01T14:10:18.378Z,36.43
2022-08-01T14:12:49.541Z,36.86
2022-08-01T14:15:38.389Z,36.64
2022-08-01T14:18:10.831Z,35.96
2022-08-01T14:20:40.231Z,36.00
2022-08-01T14:23:09.399Z,36.15
2022-08-01T14:26:00.374Z,36.30
2022-08-01T14:28:29.717Z,36.49
2022-08-01T14:30:59.059Z,36.39
2022-08-01T14:33:27.811Z,36.66
2022-08-01T14:36:06.289Z,37.17
2022-08-01T14:38:46.248Z,37.39
2022-08-01T14:41:16.659Z,37.32
2022-08-01T14:43:44.637Z,37.84
2022-08-01T14:46:13.789Z,37.87
2022-08-01T14:48:42.054Z,37.85
2022-08-01T14:51:10.734Z,38.11
2022-08-01T14:53:39.185Z,38.27
2022-08-01T14:56:07.660Z,38.27
2022-08-01T14:58:35.899Z,38.50
2022-08-01T15:01:05.963Z,38.25
2022-08-01T15:03:33.935Z,38.35
2022-08-01T15:06:02.464Z,38.42
2022-08-01T15:08:31.173Z,38.85
2022-08-01T15:10:59.208Z,39.18
2022-08-01T15:13:27.210Z,38.97
2022-08-01T15:15:55.414Z,39.09
2022-08-01T15:18:29.591Z,38.79
2022-08-01T15:20:58.603Z,38.51
2022-08-01T15:23:26.892Z,38.03
2022-08-01T15:25:55.036Z,38.02
2022-08-01T15:28:23.555Z,37.91
2022-08-01T15:30:51.468Z,37.68
2022-08-01T15:33:19.639Z,37.83
2022-08-01T15:35:47.588Z,37.49
2022-08-01T15:38:15.823Z,37.98
2022-08-01T15:40:43.724Z,38.43
2022-08-01T15:43:15.625Z,38.26
2022-08-01T15:45:48.470Z,38.39
2022-08-01T15:48:18.003Z,38.55
2022-08-01T15:50:46.193Z,38.72
2022-08-01T15:53:15.070Z,38.70
2022-08-01T15:55:48.900Z,38.97
2022-08-01T15:58:20.855Z,38.97
2022-08-01T16:00:49.117Z,39.11
2022-08-01T16:03:17.215Z,39.29
2022-08-01T16:05:45.280Z,39.53
2022-08-01T16:08:14.034Z,39.47
2022-08-01T16:10:42.822Z,39.55
2022-08-01T16:13:11.726Z,39.65
2022-08-01T16:15:40.412Z,40.02
2022-08-01T16:18:13.113Z,40.36
2022-08-01T16:20:45.565Z,40.41
2022-08-01T16:23:15.461Z,40.30
2022-08-01T16:25:45.038Z,40.27
2022-08-01T16:28:14.426Z,40.39
2022-08-01T16:30:53.985Z,40.62
2022-08-01T16:33:47.334Z,40.74
2022-08-01T16:36:21.899Z,40.88
2022-08-01T16:38:52.607Z,40.93
2022-08-01T16:41:20.745Z,41.31
2022-08-01T16:43:53.802Z,41.36
2022-08-01T16:46:26.813Z,41.64
2022-08-01T16:48:55.882Z,41.63
2022-08-01T16:51:23.894Z,41.75
2022-08-01T16:53:51.920Z,42.00
2022-08-01T16:56:20.706Z,42.09
2022-08-01T16:58:48.641Z,42.09
2022-08-01T17:01:58.967Z,42.35
2022-08-01T17:04:06.824Z,42.51
2022-08-01T17:06:35.373Z,42.65
2022-08-01T17:09:04.718Z,42.77
2022-08-01T17:11:32.869Z,42.83
2022-08-01T17:14:00.830Z,42.92
2022-08-01T17:16:28.644Z,43.00
2022-08-01T17:18:56.716Z,43.17
2022-08-01T17:21:24.846Z,43.48
2022-08-01T17:23:53.489Z,43.62
2022-08-01T17:26:21.603Z,43.69
2022-08-01T17:28:50.194Z,43.80
2022-08-01T17:31:18.676Z,43.88
2022-08-01T17:33:49.526Z,43.86
2022-08-01T17:36:21.434Z,44.04
2022-08-01T17:38:49.426Z,44.23
2022-08-01T17:41:17.325Z,44.67
2022-08-01T17:43:45.402Z,44.65
2022-08-01T17:46:13.848Z,44.75
2022-08-01T17:48:42.361Z,44.86
2022-08-01T17:51:10.538Z,45.09
2022-08-01T17:53:56.807Z,45.31
2022-08-01T17:56:27.716Z,45.67
2022-08-01T17:58:56.769Z,46.04
2022-08-01T18:01:26.937Z,46.71
2022-08-01T18:03:57.426Z,46.95
2022-08-01T18:06:26.708Z,47.24
2022-08-01T18:08:56.257Z,47.66
2022-08-01T18:11:27.079Z,48.06
2022-08-01T18:13:59.713Z,48.59
2022-08-01T18:16:28.675Z,49.11
2022-08-01T18:18:57.030Z,49.45
2022-08-01T18:21:25.004Z,49.60
2022-08-01T18:23:53.320Z,49.96
2022-08-01T18:26:21.903Z,50.49
2022-08-01T18:28:50.736Z,50.95
2022-08-01T18:31:20.502Z,51.13
2022-08-01T18:33:49.185Z,51.50
2022-08-01T18:36:32.396Z,51.75
2022-08-01T18:39:06.279Z,51.91
2022-08-01T18:41:39.068Z,51.98
2022-08-01T18:44:08.898Z,52.03
2022-08-01T18:46:39.099Z,52.31
2022-08-01T18:49:09.845Z,52.38
2022-08-01T18:51:43.893Z,52.44
2022-08-01T18:54:16.930Z,52.62
2022-08-01T18:56:45.598Z,52.91
2022-08-01T18:59:14.958Z,53.15
2022-08-01T19:01:43.782Z,53.35
2022-08-01T19:04:13.337Z,53.49
2022-08-01T19:06:41.250Z,53.69
2022-08-01T19:09:09.533Z,53.73
2022-08-01T19:11:37.747Z,53.99
2022-08-01T19:14:06.057Z,54.03
2022-08-01T19:16:34.194Z,54.32
2022-08-01T19:19:05.153Z,54.71
2022-08-01T19:21:36.132Z,54.71
2022-08-01T19:24:23.935Z,54.93
2022-08-01T19:26:58.338Z,55.22
2022-08-01T19:29:35.583Z,55.23
2022-08-01T19:32:07.375Z,55.43
2022-08-01T19:34:42.571Z,55.41
2022-08-01T19:37:11.545Z,55.46
2022-08-01T19:39:44.417Z,55.73
2022-08-01T19:42:13.572Z,55.82
2022-08-01T19:44:42.954Z,55.88
2022-08-01T19:47:13.338Z,55.99
2022-08-01T19:49:41.480Z,56.26
2022-08-01T19:52:10.012Z,56.29
2022-08-01T19:54:43.137Z,56.69
2022-08-01T19:57:14.992Z,56.81
2022-08-01T19:59:46.095Z,57.09
2022-08-01T20:02:20.303Z,57.32
2022-08-01T20:04:48.964Z,57.24
2022-08-01T20:07:17.610Z,57.39
2022-08-01T20:09:48.198Z,57.23
2022-08-01T20:12:21.843Z,57.40
2022-08-01T20:14:53.882Z,57.47
2022-08-01T20:17:24.058Z,57.59
2022-08-01T20:19:52.193Z,57.71
2022-08-01T20:22:26.814Z,57.91
2022-08-01T20:24:58.670Z,57.89
2022-08-01T20:27:28.789Z,57.83
2022-08-01T20:29:58.963Z,57.87
2022-08-01T20:32:32.333Z,57.76
2022-08-01T20:35:01.827Z,58.10
2022-08-01T20:38:05.526Z,58.31
2022-08-01T20:40:21.931Z,58.78
2022-08-01T20:42:54.143Z,58.73
2022-08-01T20:45:24.313Z,58.92
2022-08-01T20:47:54.008Z,59.08
2022-08-01T20:50:52.957Z,59.05
2022-08-01T20:53:26.128Z,59.22
2022-08-01T20:56:06.784Z,59.31
2022-08-01T20:58:45.768Z,59.30
2022-08-01T21:01:17.781Z,59.30
2022-08-01T21:04:09.521Z,59.27
2022-08-01T21:06:43.887Z,59.47
2022-08-01T21:09:20.255Z,59.71
2022-08-01T21:11:52.879Z,60.07
2022-08-01T21:14:21.530Z,60.19
2022-08-01T21:17:07.228Z,60.35
2022-08-01T21:19:35.688Z,60.44
2022-08-01T21:22:11.133Z,60.60
2022-08-01T21:25:05.508Z,60.52
2022-08-01T21:27:39.386Z,60.81
2022-08-01T21:30:09.261Z,60.98
2022-08-01T21:32:40.508Z,61.07
2022-08-01T21:35:16.510Z,61.17
2022-08-01T21:37:51.814Z,61.36
2022-08-01T21:40:22.450Z,61.20
2022-08-01T21:42:52.556Z,61.27
2022-08-01T21:45:22.781Z,61.34
2022-08-01T21:47:51.624Z,61.32
2022-08-01T21:50:21.536Z,61.68
2022-08-01T21:53:07.429Z,61.98
2022-08-01T21:55:56.887Z,61.99
2022-08-01T21:58:41.143Z,61.98
2022-08-01T22:01:33.110Z,62.01
2022-08-01T22:04:35.069Z,62.01
2022-08-01T22:07:08.795Z,61.77
2022-08-01T22:09:39.755Z,61.70
2022-08-01T22:12:08.002Z,61.98
2022-08-01T22:14:42.081Z,62.02
2022-08-01T22:17:19.677Z,61.95
2022-08-01T22:19:53.615Z,61.83
2022-08-01T22:22:45.011Z,61.79
2022-08-01T22:25:15.088Z,61.76
2022-08-01T22:28:03.097Z,61.77
2022-08-01T22:30:34.817Z,61.65
2022-08-01T22:33:08.070Z,61.69
2022-08-01T22:35:48.918Z,61.64
2022-08-01T22:38:19.436Z,61.58
2022-08-01T22:40:53.311Z,61.57
2022-08-01T22:43:26.268Z,61.85
2022-08-01T22:46:12.978Z,61.82
2022-08-01T22:49:09.084Z,61.86
2022-08-01T22:51:54.661Z,61.89
2022-08-01T22:54:36.135Z,62.06
2022-08-01T22:57:10.961Z,61.89
2022-08-01T22:59:57.119Z,61.76
2022-08-01T23:02:28.454Z,61.90
2022-08-01T23:05:06.306Z,61.93
2022-08-01T23:07:39.117Z,61.88
2022-08-01T23:10:08.801Z,61.75
2022-08-01T23:12:37.063Z,61.47
2022-08-01T23:15:05.725Z,61.56
2022-08-01T23:17:34.648Z,61.55
2022-08-01T23:20:07.034Z,61.61
2022-08-01T23:22:36.972Z,61.60
2022-08-01T23:25:08.210Z,61.69
2022-08-01T23:28:04.410Z,61.59
2022-08-01T23:30:35.520Z,61.62
2022-08-01T23:33:04.117Z,61.75
2022-08-01T23:35:35.435Z,61.96
2022-08-01T23:38:10.144Z,61.87
2022-08-01T23:40:38.793Z,61.93
2022-08-01T23:43:16.131Z,62.08
2022-08-01T23:46:04.078Z,62.04
2022-08-01T23:48:34.458Z,62.15
2022-08-01T23:51:04.699Z,62.19
2022-08-01T23:53:34.014Z,62.13
2022-08-01T23:56:04.217Z,62.11
2022-08-01T23:58:33.565Z,62.11
